Time;durP1;ratioP1;P1;durP2;ratioP2;P2;SDS_P1;SDS_P2;PMS_P1;PMS_P2;Temp;Humidity;BMP_temperature;BMP_pressure;BME280_temperature;BME280_humidity;BME280_pressure;Samples;Min_cycle;Max_cycle;Signal;HPM_P1;HPM_P2
2022/10/24 00:01:13;;;;;;;10.75;2.67;;;;;;;14.76;100.00;100294.03;5009584;28;20029;-86
2022/10/24 00:03:39;;;;;;;10.10;2.75;;;;;;;14.76;100.00;100297.53;5010023;28;20026;-84
2022/10/24 00:06:06;;;;;;;9.40;2.78;;;;;;;14.74;100.00;100296.84;5013688;28;20386;-87
2022/10/24 00:08:33;;;;;;;9.32;2.90;;;;;;;14.74;100.00;100288.91;5012700;28;20394;-87
2022/10/24 00:10:59;;;;;;;15.80;3.05;;;;;;;14.73;100.00;100292.53;5031488;28;20033;-86
2022/10/24 00:13:24;;;;;;;7.53;2.55;;;;;;;14.71;100.00;100289.22;5012877;28;20025;-87
2022/10/24 00:15:49;;;;;;;10.68;2.72;;;;;;;14.70;100.00;100293.66;5031228;28;20060;-86
2022/10/24 00:18:16;;;;;;;8.20;2.60;;;;;;;14.71;99.04;100290.03;5030996;28;20259;-86
2022/10/24 00:20:42;;;;;;;10.18;2.40;;;;;;;14.68;99.34;100284.22;5010802;28;20435;-86
2022/10/24 00:23:08;;;;;;;6.50;2.70;;;;;;;14.70;99.05;100292.84;5013169;28;20083;-83
2022/10/24 00:25:34;;;;;;;11.80;2.70;;;;;;;14.66;99.00;100287.03;5031232;28;20051;-86
2022/10/24 00:27:59;;;;;;;10.43;2.40;;;;;;;14.66;98.88;100288.84;5012798;28;20047;-87
2022/10/24 00:30:25;;;;;;;11.52;2.67;;;;;;;14.65;98.59;100290.66;5013319;28;20757;-87
2022/10/24 00:32:51;;;;;;;8.57;2.35;;;;;;;14.64;98.19;100277.56;5013818;28;20174;-86
2022/10/24 00:35:17;;;;;;;9.32;2.70;;;;;;;14.65;98.06;100284.53;5012269;28;20029;-83
2022/10/24 00:37:42;;;;;;;9.88;2.60;;;;;;;14.66;97.14;100286.19;5031314;28;20033;-86
2022/10/24 00:40:13;;;;;;;7.10;2.30;;;;;;;14.64;97.19;100289.00;5013230;28;20127;-87
2022/10/24 00:42:41;;;;;;;9.35;2.20;;;;;;;14.64;96.99;100285.53;5030617;28;20528;-86
2022/10/24 00:45:39;;;;;;;9.32;2.38;;;;;;;14.65;97.80;100277.41;5028496;28;20478;-87
2022/10/24 00:48:29;;;;;;;12.25;2.53;;;;;;;14.64;97.15;100277.56;4993193;28;20032;-86
2022/10/24 00:51:00;;;;;;;11.15;2.67;;;;;;;14.61;96.05;100267.28;5024046;28;20401;-86
2022/10/24 00:53:28;;;;;;;13.73;2.40;;;;;;;14.62;96.17;100274.25;5031227;28;20032;-83
2022/10/24 00:55:59;;;;;;;10.65;2.55;;;;;;;14.61;96.08;100276.06;5012743;28;20854;-86
2022/10/24 00:58:28;;;;;;;12.45;2.45;;;;;;;14.59;95.33;100264.81;5031422;28;20061;-86
2022/10/24 01:00:54;;;;;;;8.35;2.33;;;;;;;14.60;95.50;100270.91;5013318;28;20030;-87
2022/10/24 01:03:20;;;;;;;7.15;2.45;;;;;;;14.61;94.53;100267.28;5027641;28;20040;-87
2022/10/24 01:06:04;;;;;;;7.15;2.67;;;;;;;14.63;95.23;100275.91;5015020;28;20429;-87
2022/10/24 01:08:46;;;;;;;9.18;2.65;;;;;;;14.61;94.99;100272.59;5009931;28;20040;-88
2022/10/24 01:11:26;;;;;;;8.85;2.45;;;;;;;14.61;94.79;100270.78;5009984;28;20022;-84
2022/10/24 01:14:16;;;;;;;9.77;2.80;;;;;;;14.62;94.49;100269.78;5013273;28;20025;-84
2022/10/24 01:16:58;;;;;;;13.00;2.90;;;;;;;14.62;93.94;100263.66;5029651;28;20067;-87
2022/10/24 01:19:42;;;;;;;8.75;2.65;;;;;;;14.60;93.61;100268.28;5029096;28;20029;-87
2022/10/24 01:22:26;;;;;;;9.10;2.70;;;;;;;14.62;93.94;100261.00;5029265;28;20037;-87
2022/10/24 01:25:22;;;;;;;11.63;2.85;;;;;;;14.63;92.68;100265.31;5029408;28;20033;-86
2022/10/24 01:28:07;;;;;;;9.13;2.97;;;;;;;14.65;93.21;100258.06;5030437;28;20423;-89
2022/10/24 01:30:45;;;;;;;9.88;2.95;;;;;;;14.63;93.02;100257.38;5029306;28;20034;-88
2022/10/24 01:33:17;;;;;;;14.95;3.40;;;;;;;14.63;92.39;100260.84;5029198;28;20116;-87
2022/10/24 01:35:50;;;;;;;7.82;2.58;;;;;;;14.62;92.23;100253.91;5030087;28;20025;-88
2022/10/24 01:38:27;;;;;;;7.85;2.65;;;;;;;14.65;91.44;100258.06;5033199;28;20089;-86
2022/10/24 01:41:01;;;;;;;9.07;2.30;;;;;;;14.67;90.93;100266.66;5018190;28;20029;-88
2022/10/24 01:43:37;;;;;;;7.57;2.50;;;;;;;14.67;90.83;100262.22;5005046;28;20026;-87
2022/10/24 01:46:09;;;;;;;8.23;2.40;;;;;;;14.67;90.14;100245.50;5018281;28;20033;-87
2022/10/24 01:48:41;;;;;;;11.30;2.80;;;;;;;14.67;90.23;100242.84;5018775;28;20053;-87
2022/10/24 01:51:10;;;;;;;9.70;2.42;;;;;;;14.67;89.69;100238.38;5027789;28;20029;-87
2022/10/24 01:53:37;;;;;;;8.55;2.30;;;;;;;14.69;89.20;100238.22;5030638;28;20027;-88
2022/10/24 01:56:02;;;;;;;7.95;2.28;;;;;;;14.66;89.63;100235.88;5029545;28;20474;-88
2022/10/24 01:58:28;;;;;;;10.13;2.72;;;;;;;14.69;88.50;100243.50;5029372;28;20091;-88
2022/10/24 02:00:59;;;;;;;7.53;2.60;;;;;;;14.69;88.24;100232.91;5012670;28;20497;-88
2022/10/24 02:03:35;;;;;;;7.47;2.60;;;;;;;14.72;88.58;100240.56;5031043;28;20102;-88
2022/10/24 02:06:39;;;;;;;9.63;2.33;;;;;;;14.76;87.02;100238.44;5014623;28;20022;-88
2022/10/24 02:09:08;;;;;;;;;;;;;;;14.78;90.56;100237.28;4975068;28;20154;-88
2022/10/24 02:11:34;;;;;;;7.00;2.00;;;;;;;14.70;87.89;100234.59;5025297;28;19920;-88
2022/10/24 02:14:15;;;;;;;6.88;1.77;;;;;;;14.78;86.81;100229.34;5033421;28;20021;-88
2022/10/24 02:16:40;;;;;;;9.98;2.10;;;;;;;14.80;86.14;100232.66;5033757;28;20060;-89
2022/10/24 02:19:06;;;;;;;9.32;2.13;;;;;;;14.81;85.90;100237.00;5033754;28;20021;-84
2022/10/24 02:21:31;;;;;;;5.70;1.77;;;;;;;14.82;86.21;100236.00;5011487;28;20482;-83
2022/10/24 02:24:05;;;;;;;8.65;2.28;;;;;;;14.81;85.54;100237.00;5032307;28;20053;-87
2022/10/24 02:26:33;;;;;;;8.98;2.00;;;;;;;14.85;84.86;100227.75;5033066;28;20028;-87
2022/10/24 02:29:06;;;;;;;6.18;1.95;;;;;;;14.83;85.43;100237.69;5032198;28;20035;-86
2022/10/24 02:31:33;;;;;;;;;;;;;;;14.88;88.23;100235.38;5015757;28;20032;-87
2022/10/24 02:34:02;;;;;;;4.55;1.70;;;;;;;14.84;84.90;100227.91;5015760;28;20003;-87
2022/10/24 02:36:30;;;;;;;8.00;2.05;;;;;;;14.84;84.81;100231.38;5032144;28;20083;-87
2022/10/24 02:39:00;;;;;;;6.93;1.90;;;;;;;14.81;84.98;100234.34;5033545;28;20035;-87
2022/10/24 02:41:30;;;;;;;6.30;1.90;;;;;;;14.81;84.60;100241.44;5032151;28;20044;-83
2022/10/24 02:43:57;;;;;;;6.10;1.60;;;;;;;14.80;84.09;100239.78;5015340;28;20113;-87
2022/10/24 02:46:24;;;;;;;7.10;1.95;;;;;;;14.82;84.22;100229.88;5014826;28;20040;-83
2022/10/24 02:48:54;;;;;;;6.32;1.98;;;;;;;14.85;83.36;100233.06;5014077;28;20075;-87
2022/10/24 02:51:23;;;;;;;6.65;2.05;;;;;;;14.88;83.68;100245.97;5013691;28;20128;-87
2022/10/24 02:53:49;;;;;;;6.45;1.67;;;;;;;14.98;81.93;100246.69;4995229;28;20112;-87
2022/10/24 02:56:14;;;;;;;8.05;1.73;;;;;;;15.00;82.35;100231.47;5011368;28;20034;-89
2022/10/24 02:58:39;;;;;;;6.15;1.50;;;;;;;15.04;82.27;100238.13;5008345;28;20025;-87
2022/10/24 03:01:05;;;;;;;5.55;1.95;;;;;;;15.08;81.97;100235.16;5032311;28;20498;-88
2022/10/24 03:03:30;;;;;;;4.70;1.50;;;;;;;15.12;81.22;100236.50;5031090;28;20398;-88
2022/10/24 03:05:58;;;;;;;6.28;1.90;;;;;;;15.14;81.18;100238.00;5031994;28;20084;-88
2022/10/24 03:08:24;;;;;;;7.63;1.92;;;;;;;15.12;81.69;100244.44;5013122;28;20041;-87
2022/10/24 03:10:49;;;;;;;8.10;2.13;;;;;;;15.14;80.76;100247.78;5030741;28;20667;-87
2022/10/24 03:13:14;;;;;;;7.90;1.80;;;;;;;15.11;81.18;100238.31;5031086;28;20839;-87
2022/10/24 03:15:39;;;;;;;11.82;2.63;;;;;;;15.13;80.66;100246.09;5031893;28;20037;-87
2022/10/24 03:18:05;;;;;;;10.13;2.13;;;;;;;15.08;81.16;100237.81;5013451;28;20017;-87
2022/10/24 03:20:30;;;;;;;6.00;1.80;;;;;;;15.10;80.78;100246.44;5031623;28;20459;-87
2022/10/24 03:22:59;;;;;;;5.07;2.08;;;;;;;15.10;80.83;100246.44;5006097;28;20049;-83
2022/10/24 03:25:24;;;;;;;9.40;1.92;;;;;;;15.07;81.24;100238.78;5030906;28;20108;-88
2022/10/24 03:27:49;;;;;;;4.55;1.50;;;;;;;15.01;81.78;100230.50;5014690;28;20537;-87
2022/10/24 03:30:15;;;;;;;5.85;1.63;;;;;;;14.98;82.06;100244.06;5014258;28;20293;-87
2022/10/24 03:32:40;;;;;;;8.07;1.75;;;;;;;14.94;82.26;100242.69;5031671;28;20030;-87
2022/10/24 03:35:06;;;;;;;5.50;1.65;;;;;;;14.95;81.96;100243.53;5032136;28;20448;-84
2022/10/24 03:37:31;;;;;;;5.97;1.77;;;;;;;14.94;82.60;100231.28;5013378;28;20393;-82
2022/10/24 03:39:57;;;;;;;8.10;1.83;;;;;;;14.91;83.10;100232.41;5012796;28;20095;-83
2022/10/24 03:42:22;;;;;;;5.40;1.75;;;;;;;14.91;82.64;100221.00;5023971;28;20029;-87
2022/10/24 03:44:48;;;;;;;5.45;1.70;;;;;;;14.91;82.58;100227.13;5010437;28;20088;-87
2022/10/24 03:47:13;;;;;;;6.68;1.80;;;;;;;14.95;82.08;100228.47;5012227;28;20103;-87
2022/10/24 03:49:38;;;;;;;12.85;2.13;;;;;;;14.94;82.46;100215.38;5012666;28;20474;-88
2022/10/24 03:52:04;;;;;;;6.55;1.80;;;;;;;14.96;81.99;100214.22;5010713;28;20021;-88
2022/10/24 03:54:29;;;;;;;7.20;1.83;;;;;;;15.01;81.58;100209.28;5011411;28;20036;-83
2022/10/24 03:56:58;;;;;;;8.43;2.05;;;;;;;15.02;81.82;100218.91;5031357;28;20116;-87
2022/10/24 03:59:23;;;;;;;7.35;1.70;;;;;;;15.04;81.61;100214.28;5029474;28;20033;-87
2022/10/24 04:01:48;;;;;;;7.18;1.85;;;;;;;15.05;81.60;100218.59;5031351;28;20021;-87
2022/10/24 04:04:13;;;;;;;7.57;1.80;;;;;;;15.08;81.37;100214.78;5030640;28;20025;-87
2022/10/24 04:06:39;;;;;;;7.93;1.80;;;;;;;15.10;80.84;100225.22;5030438;28;20022;-87
2022/10/24 04:09:05;;;;;;;6.90;1.60;;;;;;;15.09;81.53;100231.50;5031012;28;20026;-88
2022/10/24 04:11:31;;;;;;;8.80;2.03;;;;;;;15.08;81.72;100227.22;5012841;28;20033;-87
2022/10/24 04:13:56;;;;;;;6.53;2.10;;;;;;;15.07;81.57;100234.31;5028907;28;20025;-87
2022/10/24 04:16:22;;;;;;;7.47;2.10;;;;;;;15.09;80.61;100226.22;5012651;28;20041;-83
2022/10/24 04:18:49;;;;;;;6.38;1.83;;;;;;;15.08;81.62;100219.25;5012886;28;20039;-87
2022/10/24 04:21:14;;;;;;;11.80;1.83;;;;;;;15.10;80.95;100220.75;5030192;28;20033;-87
2022/10/24 04:23:41;;;;;;;7.72;1.73;;;;;;;15.10;81.15;100220.75;5027405;28;20041;-87
2022/10/24 04:26:08;;;;;;;6.85;2.10;;;;;;;15.08;81.38;100212.13;5013378;28;20414;-83
2022/10/24 04:28:34;;;;;;;8.63;1.83;;;;;;;15.07;81.14;100210.47;5029762;28;20404;-89
2022/10/24 04:30:59;;;;;;;6.00;1.58;;;;;;;15.02;81.25;100218.06;5013296;28;20021;-83
2022/10/24 04:33:24;;;;;;;5.82;1.90;;;;;;;15.07;80.42;100212.28;5030251;28;20133;-83
2022/10/24 04:35:51;;;;;;;5.80;1.90;;;;;;;15.07;80.43;100221.06;5012978;28;20035;-86
2022/10/24 04:38:17;;;;;;;7.30;1.75;;;;;;;15.04;80.75;100216.94;5030752;28;20470;-86
2022/10/24 04:40:48;;;;;;;8.32;1.90;;;;;;;15.07;80.60;100225.53;5030936;28;20393;-87
2022/10/24 04:43:13;;;;;;;7.93;1.88;;;;;;;15.06;80.47;100224.72;5030739;28;20085;-87
2022/10/24 04:45:39;;;;;;;6.40;1.60;;;;;;;15.06;80.48;100230.00;5012789;28;20022;-87
2022/10/24 04:48:04;;;;;;;7.38;2.00;;;;;;;15.07;80.69;100222.91;5011708;28;20025;-88
2022/10/24 04:50:30;;;;;;;10.02;1.73;;;;;;;15.09;80.57;100224.41;5012654;28;20029;-87
2022/10/24 04:52:58;;;;;;;7.45;1.65;;;;;;;15.09;80.67;100218.25;5012963;28;20026;-87
2022/10/24 04:55:23;;;;;;;8.40;1.70;;;;;;;15.11;80.78;100221.59;5014777;28;20026;-87
2022/10/24 04:57:49;;;;;;;6.25;1.48;;;;;;;15.17;79.97;100218.31;5011647;28;20430;-88
2022/10/24 05:00:14;;;;;;;8.15;1.77;;;;;;;15.22;79.82;100226.63;4993441;28;20022;-87
2022/10/24 05:02:40;;;;;;;8.02;1.80;;;;;;;15.23;80.05;100221.19;5022868;28;20025;-87
2022/10/24 05:05:05;;;;;;;7.47;1.90;;;;;;;15.25;80.24;100219.19;5011346;28;20119;-86
2022/10/24 05:07:32;;;;;;;9.38;2.00;;;;;;;15.27;79.94;100221.69;5030206;28;20025;-88
2022/10/24 05:09:57;;;;;;;7.65;1.65;;;;;;;15.27;79.81;100221.69;5008477;28;20025;-87
2022/10/24 05:12:22;;;;;;;9.82;2.20;;;;;;;15.25;80.03;100218.38;5008730;28;20045;-88
2022/10/24 05:14:48;;;;;;;11.45;2.00;;;;;;;15.19;80.57;100218.97;5010485;28;20025;-87
2022/10/24 05:17:13;;;;;;;9.63;2.03;;;;;;;15.16;80.75;100230.72;5010108;28;20406;-88
2022/10/24 05:19:39;;;;;;;11.90;2.35;;;;;;;15.20;80.28;100224.13;5017528;28;20409;-88
2022/10/24 05:22:04;;;;;;;12.68;2.30;;;;;;;15.20;80.95;100236.53;5011872;28;20025;-87
2022/10/24 05:24:30;;;;;;;7.75;2.10;;;;;;;15.20;81.45;100239.19;5028452;28;20104;-88
2022/10/24 05:26:58;;;;;;;8.10;2.38;;;;;;;15.20;81.36;100241.84;5010157;28;20028;-87
2022/10/24 05:29:24;;;;;;;8.35;1.90;;;;;;;15.20;81.54;100242.66;5009780;28;20034;-88
2022/10/24 05:31:50;;;;;;;9.95;1.92;;;;;;;15.25;81.14;100247.53;4992937;28;20041;-88
2022/10/24 05:34:15;;;;;;;10.32;2.42;;;;;;;15.28;80.77;100247.19;5028599;28;20305;-83
2022/10/24 05:36:40;;;;;;;8.88;2.00;;;;;;;15.30;80.95;100247.88;5011667;28;20076;-85
2022/10/24 05:39:05;;;;;;;10.90;2.20;;;;;;;15.34;80.69;100243.91;5011293;28;20087;-87
2022/10/24 05:41:31;;;;;;;8.88;2.05;;;;;;;15.39;80.07;100246.91;5011705;28;20030;-87
2022/10/24 05:43:57;;;;;;;9.98;2.10;;;;;;;15.39;80.33;100248.72;5028887;28;20025;-82
2022/10/24 05:46:22;;;;;;;8.13;1.98;;;;;;;15.40;80.02;100248.56;5024461;28;20087;-90
2022/10/24 05:48:48;;;;;;;9.55;2.10;;;;;;;15.37;80.83;100246.25;5029651;28;20116;-88
2022/10/24 05:51:13;;;;;;;8.85;2.30;;;;;;;15.36;80.61;100255.19;5028717;28;20022;-88
2022/10/24 05:53:38;;;;;;;7.30;1.90;;;;;;;15.34;81.00;100249.22;5029570;28;20479;-88
2022/10/24 05:56:05;;;;;;;8.45;1.92;;;;;;;15.35;80.27;100253.53;5029321;28;20033;-87
2022/10/24 05:58:30;;;;;;;12.27;2.10;;;;;;;15.39;79.85;100252.22;5015276;28;20026;-87
2022/10/24 06:00:56;;;;;;;10.30;2.65;;;;;;;15.37;80.27;100243.59;5020476;28;20052;-87
2022/10/24 06:03:22;;;;;;;7.80;1.98;;;;;;;15.34;80.14;100249.22;5018618;28;20036;-87
2022/10/24 06:05:49;;;;;;;10.05;1.98;;;;;;;15.32;80.39;100264.44;5038238;28;20046;-88
2022/10/24 06:08:14;;;;;;;9.80;1.90;;;;;;;15.27;80.59;100261.44;5021417;28;20025;-88
2022/10/24 06:10:40;;;;;;;12.20;2.38;;;;;;;15.25;81.17;100255.47;5035978;28;20040;-83
2022/10/24 06:13:05;;;;;;;6.75;1.80;;;;;;;15.22;80.88;100256.63;5016389;28;20017;-88
2022/10/24 06:15:31;;;;;;;7.95;2.10;;;;;;;15.22;80.91;100261.91;5011611;28;20060;-87
2022/10/24 06:17:56;;;;;;;10.00;2.53;;;;;;;15.19;81.09;100266.69;4998399;28;20036;-88
2022/10/24 06:20:22;;;;;;;6.82;2.10;;;;;;;15.17;81.32;100258.88;4996998;28;20022;-88
2022/10/24 06:22:48;;;;;;;8.93;2.28;;;;;;;15.18;81.04;100267.66;5015890;28;20033;-87
2022/10/24 06:25:13;;;;;;;10.10;2.25;;;;;;;15.17;81.32;100264.19;5018201;28;20030;-87
2022/10/24 06:27:40;;;;;;;11.43;2.30;;;;;;;15.15;81.17;100266.16;5019400;28;20176;-88
2022/10/24 06:30:06;;;;;;;11.52;2.80;;;;;;;15.14;81.93;100268.97;5018090;28;20028;-87
2022/10/24 06:32:31;;;;;;;8.63;2.05;;;;;;;15.13;81.69;100267.31;5001762;28;20030;-89
2022/10/24 06:34:57;;;;;;;9.85;2.50;;;;;;;15.12;81.73;100268.28;5006613;28;20094;-88
2022/10/24 06:37:22;;;;;;;10.50;2.50;;;;;;;15.11;81.63;100285.19;4995248;28;20033;-88
2022/10/24 06:39:47;;;;;;;12.75;2.72;;;;;;;15.09;82.02;100287.16;5011868;28;20034;-88
2022/10/24 06:42:13;;;;;;;10.85;2.17;;;;;;;15.09;82.26;100287.16;5006039;28;20057;-89
2022/10/24 06:44:38;;;;;;;10.93;2.50;;;;;;;15.08;82.13;100293.44;4993985;28;20045;-88
2022/10/24 06:47:05;;;;;;;9.85;2.50;;;;;;;15.04;82.12;100293.75;4999149;28;20025;-88
2022/10/24 06:49:30;;;;;;;13.52;2.75;;;;;;;15.07;81.98;100294.44;5012868;28;20116;-88
2022/10/24 06:51:58;;;;;;;11.43;2.42;;;;;;;15.04;82.35;100303.53;5013225;28;20033;-88
2022/10/24 06:54:24;;;;;;;9.80;2.17;;;;;;;15.03;82.57;100310.66;4994317;28;20034;-88
2022/10/24 06:56:49;;;;;;;15.75;2.85;;;;;;;15.05;82.67;100311.31;5007620;28;20018;-88
2022/10/24 06:59:17;;;;;;;11.68;2.50;;;;;;;15.09;82.69;100324.25;5012093;28;20014;-87
2022/10/24 07:01:42;;;;;;;9.57;2.22;;;;;;;15.10;83.10;100320.63;4993621;28;20536;-89
2022/10/24 07:04:07;;;;;;;11.90;2.70;;;;;;;15.12;84.08;100314.19;5011076;28;20104;-87
2022/10/24 07:06:33;;;;;;;9.40;2.58;;;;;;;15.07;84.72;100310.34;4994464;28;20050;-88
2022/10/24 07:09:00;;;;;;;9.60;2.10;;;;;;;15.02;85.26;100318.75;5010100;28;20108;-87
2022/10/24 07:11:28;;;;;;;13.18;2.70;;;;;;;14.97;85.70;100316.56;4994353;28;20025;-88
2022/10/24 07:13:54;;;;;;;13.52;2.67;;;;;;;14.91;86.64;100322.50;5012935;28;20009;-88
2022/10/24 07:16:19;;;;;;;7.75;2.05;;;;;;;14.87;87.28;100320.31;4995264;28;20037;-88
2022/10/24 07:18:45;;;;;;;12.38;2.50;;;;;;;14.85;87.47;100322.28;5018726;28;20059;-88
2022/10/24 07:21:14;;;;;;;11.95;2.60;;;;;;;14.81;88.01;100332.34;5013702;28;20025;-84
2022/10/24 07:23:39;;;;;;;12.65;2.50;;;;;;;14.81;88.19;100335.00;5010657;28;20363;-83
2022/10/24 07:26:12;;;;;;;10.32;2.22;;;;;;;14.85;88.60;100341.66;5012324;28;20033;-88
2022/10/24 07:28:38;;;;;;;10.82;2.60;;;;;;;14.90;88.22;100349.97;4994829;28;20076;-88
2022/10/24 07:31:05;;;;;;;12.38;2.78;;;;;;;14.95;88.32;100358.28;5011943;28;20390;-88
2022/10/24 07:33:30;;;;;;;11.77;2.42;;;;;;;14.96;88.83;100354.66;5012443;28;20037;-89
2022/10/24 07:35:58;;;;;;;13.85;2.67;;;;;;;14.99;87.27;100356.16;5012402;28;20036;-83
2022/10/24 07:38:24;;;;;;;10.60;2.60;;;;;;;15.01;87.22;100356.81;4993972;28;20021;-86
2022/10/24 07:40:49;;;;;;;11.43;2.65;;;;;;;15.02;86.63;100353.19;5012284;28;20496;-88
2022/10/24 07:43:16;;;;;;;11.52;2.70;;;;;;;15.10;85.74;100368.31;4994114;28;20254;-88
2022/10/24 07:45:42;;;;;;;11.95;2.65;;;;;;;15.17;85.14;100361.41;4994429;28;20079;-88
2022/10/24 07:48:08;;;;;;;11.68;2.67;;;;;;;15.23;84.71;100379.38;5012457;28;20026;-87
2022/10/24 07:50:34;;;;;;;13.32;2.72;;;;;;;15.23;85.17;100392.63;4994097;28;20028;-89
2022/10/24 07:53:00;;;;;;;13.88;2.92;;;;;;;15.25;85.05;100395.94;4994669;28;20025;-90
2022/10/24 07:55:26;;;;;;;10.85;2.83;;;;;;;15.27;85.65;100399.28;5012616;28;20466;-87
2022/10/24 07:57:51;;;;;;;10.60;2.40;;;;;;;15.31;84.88;100395.31;4994260;28;20037;-88
2022/10/24 08:00:16;;;;;;;11.25;1.98;;;;;;;15.33;84.44;100410.09;4985365;28;20028;-88
2022/10/24 08:02:42;;;;;;;9.15;1.92;;;;;;;15.33;85.12;100410.09;5010116;28;20100;-92
2022/10/24 08:05:11;;;;;;;11.80;2.78;;;;;;;15.32;84.77;100403.13;4999926;28;20026;-87
2022/10/24 08:07:37;;;;;;;9.82;2.20;;;;;;;15.33;84.48;100401.31;4974140;28;20030;-88
2022/10/24 08:10:04;;;;;;;9.77;1.90;;;;;;;15.33;84.63;100417.19;4974629;28;20030;-89
2022/10/24 08:12:29;;;;;;;9.77;2.28;;;;;;;15.37;84.67;100421.22;4994376;28;20033;-88
2022/10/24 08:14:58;;;;;;;11.38;2.25;;;;;;;15.41;85.53;100419.91;5011852;28;20377;-88
2022/10/24 08:17:23;;;;;;;11.10;2.17;;;;;;;15.43;83.69;100420.59;5010842;28;20049;-89
2022/10/24 08:19:49;;;;;;;10.98;2.35;;;;;;;15.53;83.64;100439.03;5012515;28;20034;-88
2022/10/24 08:22:15;;;;;;;10.18;2.65;;;;;;;15.66;83.11;100436.84;5032780;28;20397;-88
2022/10/24 08:24:44;;;;;;;13.07;2.92;;;;;;;15.73;82.34;100437.06;5030787;28;20025;-88
2022/10/24 08:27:10;;;;;;;9.75;2.15;;;;;;;15.76;83.03;100437.56;5049399;28;20025;-87
2022/10/24 08:29:36;;;;;;;9.20;2.30;;;;;;;15.81;82.46;100450.38;5032793;28;20039;-85
2022/10/24 08:32:01;;;;;;;11.35;2.55;;;;;;;15.84;81.97;100447.41;5043234;28;20120;-88
2022/10/24 08:34:27;;;;;;;9.48;2.38;;;;;;;15.86;82.01;100440.09;5042925;28;20078;-88
2022/10/24 08:36:52;;;;;;;14.18;2.88;;;;;;;15.79;82.40;100429.28;5031521;28;20104;-88
2022/10/24 08:39:18;;;;;;;11.98;2.60;;;;;;;15.70;82.33;100443.50;5019398;28;20477;-88
2022/10/24 08:41:49;;;;;;;10.77;2.58;;;;;;;15.62;82.39;100448.78;5029677;28;20516;-89
2022/10/24 08:44:29;;;;;;;11.02;2.40;;;;;;;15.57;83.33;100443.88;5030786;28;20025;-88
2022/10/24 08:47:04;;;;;;;13.27;2.70;;;;;;;15.59;82.94;100459.66;5040761;28;20501;-89
2022/10/24 08:49:44;;;;;;;10.82;2.28;;;;;;;15.64;83.20;100452.94;5030925;28;20029;-90
2022/10/24 08:52:31;;;;;;;14.55;2.63;;;;;;;15.74;81.99;100462.59;5012361;28;20030;-88
2022/10/24 08:54:59;;;;;;;12.27;2.35;;;;;;;15.81;80.71;100450.38;5023887;28;20102;-88
2022/10/24 08:57:30;;;;;;;9.57;2.25;;;;;;;15.87;79.75;100453.22;5030876;28;20029;-89
2022/10/24 09:00:06;;;;;;;8.65;1.83;;;;;;;15.95;79.56;100457.72;5025053;28;20453;-89
2022/10/24 09:02:36;;;;;;;10.80;2.13;;;;;;;16.02;78.94;100458.78;5017828;28;20076;-87
2022/10/24 09:05:28;;;;;;;9.18;2.03;;;;;;;16.10;78.12;100463.31;5018132;28;20050;-90
2022/10/24 09:08:04;;;;;;;9.35;2.00;;;;;;;16.16;78.06;100458.19;5007613;28;20033;-88
2022/10/24 09:10:50;;;;;;;10.15;1.95;;;;;;;16.24;78.49;100460.03;5030270;28;20391;-89
2022/10/24 09:13:16;;;;;;;9.43;2.10;;;;;;;16.29;77.75;100455.09;5011489;28;20042;-89
2022/10/24 09:15:44;;;;;;;14.70;3.05;;;;;;;16.30;78.70;100465.53;5002908;28;20032;-89
2022/10/24 09:18:19;;;;;;;10.85;2.03;;;;;;;16.34;77.70;100476.66;5014351;28;20108;-91
2022/10/24 09:20:45;;;;;;;8.38;2.38;;;;;;;16.37;78.39;100475.50;5032352;28;20033;-89
2022/10/24 09:23:12;;;;;;;12.48;2.50;;;;;;;16.38;77.85;100482.50;5014904;28;20017;-89
2022/10/24 09:25:42;;;;;;;10.13;2.40;;;;;;;16.38;77.07;100479.84;4999280;28;20030;-91
2022/10/24 09:28:10;;;;;;;8.15;2.10;;;;;;;16.40;77.08;100485.81;5008067;28;20355;-90
2022/10/24 09:30:36;;;;;;;14.15;2.63;;;;;;;16.42;76.82;100476.72;5031069;28;20021;-89
2022/10/24 09:33:26;;;;;;;13.40;2.80;;;;;;;16.49;76.93;100484.88;5033005;28;20041;-89
2022/10/24 09:35:56;;;;;;;9.05;2.15;;;;;;;16.55;76.61;100489.53;5018884;28;20033;-89
2022/10/24 09:38:21;;;;;;;12.35;2.50;;;;;;;16.60;76.30;100487.22;5014535;28;20064;-88
2022/10/24 09:40:52;;;;;;;9.88;2.47;;;;;;;16.65;76.38;100500.03;5021173;28;20029;-90
2022/10/24 09:43:22;;;;;;;12.88;2.78;;;;;;;16.69;75.89;100504.88;5032532;28;20036;-90
2022/10/24 09:46:12;;;;;;;11.40;2.72;;;;;;;16.75;77.35;100506.06;5033311;28;20033;-91
2022/10/24 09:48:41;;;;;;;10.25;2.40;;;;;;;16.79;76.59;100502.91;5032516;28;20385;-88
2022/10/24 09:51:07;;;;;;;10.88;2.60;;;;;;;16.88;76.65;100511.78;5014354;28;20473;-89
2022/10/24 09:53:38;;;;;;;12.27;2.72;;;;;;;16.95;75.83;100515.44;5014924;28;20049;-88
2022/10/24 09:56:08;;;;;;;11.13;2.30;;;;;;;16.95;75.07;100518.09;5034564;28;20120;-90
2022/10/24 09:58:34;;;;;;;9.95;2.65;;;;;;;16.97;74.70;100516.09;5011859;28;20032;-90
2022/10/24 10:01:20;;;;;;;10.05;2.53;;;;;;;17.00;74.63;100520.25;5013182;28;20014;-89
2022/10/24 10:04:01;;;;;;;11.60;2.88;;;;;;;17.04;75.03;100524.25;5019532;28;20417;-87
2022/10/24 10:06:26;;;;;;;13.55;3.10;;;;;;;17.03;74.39;100517.28;5017979;28;20385;-88
2022/10/24 10:08:56;;;;;;;13.10;2.70;;;;;;;16.95;73.94;100525.22;5014901;28;20026;-89
2022/10/24 10:11:31;;;;;;;10.77;2.70;;;;;;;16.85;74.76;100528.88;4997321;28;20065;-90
2022/10/24 10:14:00;;;;;;;12.63;2.88;;;;;;;16.72;74.93;100531.13;5025714;28;20022;-89
2022/10/24 10:16:38;;;;;;;11.88;2.67;;;;;;;16.60;75.83;100541.19;5009005;28;20077;-90
2022/10/24 10:19:20;;;;;;;10.15;2.50;;;;;;;16.64;74.77;100540.88;5012252;28;20022;-88
2022/10/24 10:21:54;;;;;;;11.85;2.63;;;;;;;16.73;75.04;100546.09;5019890;28;20486;-87
2022/10/24 10:24:36;;;;;;;10.00;2.88;;;;;;;16.85;75.73;100541.31;5017669;28;20689;-91
2022/10/24 10:27:29;;;;;;;11.23;3.08;;;;;;;16.92;74.86;100556.47;5014202;28;20026;-89
2022/10/24 10:30:13;;;;;;;;;;;;;;;17.04;75.33;100553.50;5013988;28;20022;-91
2022/10/24 10:33:05;;;;;;;13.15;2.53;;;;;;;17.06;73.73;100554.16;5010727;28;19937;-89
2022/10/24 10:35:47;;;;;;;8.75;2.10;;;;;;;17.07;73.34;100563.78;5012440;28;20022;-90
2022/10/24 10:38:30;;;;;;;10.63;2.65;;;;;;;16.95;73.05;100573.06;5013752;28;20026;-91
2022/10/24 10:41:08;;;;;;;13.18;2.72;;;;;;;16.81;73.94;100574.50;5011419;28;20084;-88
2022/10/24 10:43:50;;;;;;;11.57;2.65;;;;;;;16.74;74.75;100578.78;5012857;28;20050;-90
2022/10/24 10:46:41;;;;;;;10.15;2.60;;;;;;;16.60;78.35;100586.34;5011894;28;20288;-89
2022/10/24 10:49:19;;;;;;;11.07;2.78;;;;;;;16.35;81.43;100583.72;5011573;28;20132;-91
2022/10/24 10:51:51;;;;;;;11.15;2.47;;;;;;;16.03;83.72;100590.50;5027461;28;20092;-91
2022/10/24 10:54:28;;;;;;;8.52;2.03;;;;;;;15.82;85.87;100593.47;5011818;28;20033;-91
2022/10/24 10:56:57;;;;;;;10.98;2.30;;;;;;;15.57;87.18;100604.81;5014324;28;20068;-91
2022/10/24 10:59:56;;;;;;;8.35;2.15;;;;;;;15.44;88.66;100599.88;5015424;28;20026;-90
2022/10/24 11:02:50;;;;;;;11.27;2.47;;;;;;;15.25;90.75;100608.00;5014747;28;20030;-91
2022/10/24 11:05:43;;;;;;;10.73;2.65;;;;;;;15.13;92.75;100595.91;5013238;28;20042;-92
2022/10/24 11:08:11;;;;;;;;;;;;;;;15.24;88.89;100603.66;5014081;28;20061;-92
2022/10/24 11:10:52;;;;;;;10.02;2.30;;;;;;;15.19;91.92;100606.75;5011343;28;19913;-87
2022/10/24 11:13:25;;;;;;;11.18;2.78;;;;;;;15.33;92.46;100608.06;5012363;28;20017;-87
2022/10/24 11:15:57;;;;;;;9.32;1.95;;;;;;;15.44;92.27;100605.19;5015982;28;20072;-88
2022/10/24 11:18:29;;;;;;;10.13;2.65;;;;;;;15.61;92.59;100601.75;5032800;28;20029;-85
2022/10/24 11:21:01;;;;;;;10.43;2.53;;;;;;;15.87;92.69;100598.31;5033376;28;20389;-91
2022/10/24 11:24:00;;;;;;;11.48;2.63;;;;;;;16.04;89.57;100613.41;5014961;28;20280;-92
2022/10/24 11:26:39;;;;;;;11.48;2.80;;;;;;;16.15;88.35;100597.22;5032638;28;20087;-90
2022/10/24 11:29:28;;;;;;;11.02;2.35;;;;;;;16.25;87.46;100594.44;5003867;28;20398;-90
2022/10/24 11:31:58;;;;;;;10.82;2.40;;;;;;;16.29;88.01;100601.94;5016615;28;20022;-91
2022/10/24 11:34:49;;;;;;;10.10;2.20;;;;;;;16.36;86.31;100596.00;5032369;28;20014;-90